Skip to main content

NOAA/GLERL Met Station at Michigan City, IN

Previous 5 days (top of hour only)
See also Previous 3 Hours (2 minute increments)
Jump down to Data
Switch to [English][Metric]
Zoom: Click and drag, Pan: shift-click and drag, Unzoom: double-click, Unzoom All




Note: Speed = mean wind during 2-minute period at top of hour,
Gust = max wind during 2-minute period at top of hour,
Peak = max wind during entire hour.
• See also 5-day windrose plot


NOAA/GLERL Met Station at Michigan City, IN

Previous 5 days (top of hour only)
See also Previous 3 Hours (2 minute increments)
Jump up to Graphs
Switch to [English][Metric]
                  Wind  Wind  Wind   Air   Dew   Rel     Sta   PAR
                   Spd   Gst   Dir  Temp    Pt   Hum    Pres uE/m2/
YYYY-MM-DD   CST   kts   kts   deg     F     F     %   in Hg   sec
2018-01-20 22:00   7.0   8.7   153  37.9  34.0  85.4    0.00     0
2018-01-20 21:00  11.3  13.8   171  38.5  35.0  87.2    0.00     0
2018-01-20 20:00  10.7  12.6   169  38.8  35.3  86.9    0.00     0
2018-01-20 19:00  11.1  13.0   170  40.3  35.2  81.8    0.00     0
2018-01-20 18:00   9.3  12.1   196  41.0  35.4  80.2    0.00     0
2018-01-20 17:00  11.9  13.6   214  41.0  34.4  77.0    0.00     0
2018-01-20 16:00  14.4  16.9   191  42.8  33.2  68.4    0.00     0
2018-01-20 15:00  10.1  11.3   182  43.0  31.1  62.6    0.00     0
2018-01-20 14:00   9.7  11.5   186  41.9  30.0  62.3    0.00     0
2018-01-20 13:00  10.9  12.4   191  41.2  29.1  61.9    0.00     0
2018-01-20 12:00  10.1  11.1   205  39.9  28.3  62.9    0.00     0
2018-01-20 11:00  11.5  12.2   182  38.5  27.6  64.5    0.00     0
2018-01-20 10:00  13.0  14.4   188  37.4  27.2  66.3    0.00     0
2018-01-20 09:00  11.5  13.0   186  35.6  26.6  69.5    0.00     0
2018-01-20 08:00  12.8  14.4   190  34.7  26.6  72.0    0.00     0
2018-01-20 07:00  13.6  15.6   188  34.9  26.3  70.7    0.00     0
2018-01-20 06:00  14.4  16.5   193  35.2  26.1  69.0    0.00     0
2018-01-20 05:00  13.2  16.7   185  35.8  26.1  67.6    0.00     0
2018-01-20 04:00  16.3  19.8   194  37.2  26.1  63.8    0.00     0
2018-01-20 03:00  13.8  16.7   192  37.2  25.7  62.8    0.00     0
2018-01-20 02:00  17.1  19.2   195  37.9  25.5  60.6    0.00     0
2018-01-20 01:00  22.0  24.9   194  39.2  25.3  57.2    0.00     0
2018-01-20 00:00  21.8  25.3   193  38.5  25.1  58.2    0.00     0
2018-01-19 23:00  20.8  22.9   194  38.7  24.6  56.6    0.00     0
2018-01-19 22:00  17.9  19.6   191  37.4  24.6  59.5    0.00     0
2018-01-19 21:00  24.3  29.0   189  37.0  24.8  60.8    0.00     0
2018-01-19 20:00  21.2  26.0   178  37.4  24.7  59.7    0.00     0
2018-01-19 19:00  21.2  25.1   178  36.3  24.3  61.4    0.00     0
2018-01-19 18:00  18.3  22.7   189  34.9  24.1  64.4    0.00     0
2018-01-19 17:00  17.9  20.6   178  34.7  24.2  65.2    0.00     0
2018-01-19 16:00  19.8  24.5   180  35.6  23.6  61.2    0.00     0
2018-01-19 15:00  15.0  18.7   180  35.8  22.9  59.1    0.00     0
2018-01-19 14:00  14.2  17.5   177  36.0  21.6  55.5    0.00     0
2018-01-19 13:00  17.1  22.9   187  35.8  19.3  50.7    0.00     0
2018-01-19 12:00  20.8  23.9   192  34.3  18.1  51.1    0.00     0
2018-01-19 11:00  15.4  17.7   189  33.3  17.3  51.5    0.00     0
2018-01-19 10:00  16.3  23.1   186  31.3  16.4  53.7    0.00     0
2018-01-19 09:00  14.0  17.3   183  29.1  16.4  58.7    0.00     0
2018-01-19 08:00  12.6  15.0   168  26.4  15.6  63.4    0.00     0
2018-01-19 07:00  15.0  18.7   187  27.9  16.6  62.2    0.00     0
2018-01-19 06:00  15.2  19.4   183  28.4  17.1  62.3    0.00     0
2018-01-19 05:00  18.1  21.2   188  28.6  17.5  62.9    0.00     0
2018-01-19 04:00  15.2  17.7   184  28.2  17.9  64.9    0.00     0
2018-01-19 03:00  18.3  21.8   188  28.8  17.7  63.0    0.00     0
2018-01-19 02:00  18.9  22.2   191  28.9  17.7  62.6    0.00     0
2018-01-19 01:00  17.1  19.4   187  29.5  18.3  62.6    0.00     0
2018-01-19 00:00  19.1  23.7   185  30.0  17.7  59.9    0.00     0
2018-01-18 23:00  18.9  23.1   189  29.1  18.4  63.8    0.00     0
2018-01-18 22:00  17.9  21.2   190  29.5  18.8  64.2    0.00     0
2018-01-18 21:00  20.6  23.7   188  29.7  18.6  63.0    0.00     0
2018-01-18 20:00  18.5  21.4   196  29.1  19.3  66.3    0.00     0
2018-01-18 19:00  17.7  19.6   192  29.5  18.9  64.4    0.00     0
2018-01-18 18:00  19.1  23.5   198  29.5  18.9  64.3    0.00     0
2018-01-18 17:00  18.5  23.3   189  29.8  17.4  59.6    0.00     0
2018-01-18 16:00  16.1  21.4   191  30.2  16.9  57.3    0.00     0
2018-01-18 15:00  16.1  17.9   186  30.6  15.3  52.7    0.00     0
2018-01-18 14:00  17.9  21.6   181  29.1  14.6  54.2    0.00     0
2018-01-18 13:00  10.5  13.0   182  27.5  14.5  57.7    0.00     0
2018-01-18 12:00  18.7  20.6   212  24.8  12.2  58.4    0.00     0
2018-01-18 11:00  17.3  19.6   200  23.0  11.7  61.5    0.00     0
2018-01-18 10:00  19.4  22.4   192  20.5  10.1  63.8    0.00     0
2018-01-18 09:00  16.3  19.1   200  18.0   9.5  69.2    0.00     0
2018-01-18 08:00  17.1  21.4   200  16.9   9.6  72.9    0.00     0
2018-01-18 07:00  22.2  26.0   208  16.7   8.8  70.8    0.00     0
2018-01-18 06:00  14.0  17.5   195  17.2   9.4  71.2    0.00     0
2018-01-18 05:00  13.6  19.2   199  17.8   9.9  71.0    0.00     0
2018-01-18 04:00  18.9  21.6   209  17.1   8.9  69.9    0.00     0
2018-01-18 03:00  17.3  20.6   208  17.1   9.1  70.6    0.00     0
2018-01-18 02:00  17.5  19.6   202  16.9   8.4  69.1    0.00     0
2018-01-18 01:00  16.9  20.0   204  17.4   8.7  68.4    0.00     0
2018-01-18 00:00  17.9  20.8   207  17.2   8.5  68.4    0.00     0
2018-01-17 23:00  22.4  26.6   203  17.6   9.2  69.2    0.00     0
2018-01-17 22:00  19.1  21.8   203  16.7   9.2  72.0    0.00     0
2018-01-17 21:00  17.1  19.8   201  16.3   8.5  71.1    0.00     0
2018-01-17 20:00  17.9  20.0   197  16.2   8.0  70.0    0.00     0
2018-01-17 19:00  18.1  20.4   193  16.2   8.3  71.0    0.00     0
2018-01-17 18:00  16.1  19.6   198  16.3   8.6  71.2    0.00     0
2018-01-17 17:00  16.5  18.5   194  16.9   7.2  65.5    0.00     0
2018-01-17 16:00  12.6  15.4   196  19.9   9.0  62.2    0.00     0
2018-01-17 15:00  21.4  24.3   229  21.2  10.1  61.9    0.00     0
2018-01-17 14:00  19.6  23.3   220  21.0  12.0  67.9    0.00     0
2018-01-17 13:00  18.1  19.8   233  19.9  12.2  71.5    0.00     0
2018-01-17 12:00  17.7  19.2   229  17.8  11.6  76.4    0.00     0
2018-01-17 11:00  15.0  16.9   219  16.2  12.6  85.5    0.00     0
2018-01-17 10:00  15.2  16.5   224  14.4  11.9  89.9    0.00     0
2018-01-17 09:00  10.1  12.1   204  10.6   7.9  88.9    0.00     0
2018-01-17 08:00   6.6   8.4   186   9.0   6.5  89.7    0.00     0
2018-01-17 07:00   8.9   9.9   190  11.3   9.9  94.1    0.00     0
2018-01-17 06:00  10.1  11.9   196  15.4  13.5  92.0    0.00     0
2018-01-17 05:00  16.5  18.5   270  21.0  14.8  76.8    0.00     0
2018-01-17 04:00  21.6  23.3   279  22.1  16.7  79.6    0.00     0
2018-01-17 03:00  16.3  18.9   294  22.8  15.6  73.5    0.00     0
2018-01-17 02:00  17.5  20.4   291  23.2  17.0  76.8    0.00     0
2018-01-17 01:00  17.3  20.2   296  23.9  19.2  82.0    0.00     0
2018-01-17 00:00   3.5   5.2   354  21.7  22.6 103.6    0.00     0
2018-01-16 23:00   8.6   9.5    49  21.7  22.5 103.1    0.00     0
2018-01-16 22:00  25.1  27.8   318  24.8  18.4  76.4    0.00     0
2018-01-16 21:00  23.3  27.8   318  23.9  24.9 104.1    0.00     0
2018-01-16 20:00  12.8  16.5   329  21.6  22.3 103.0    0.00     0
2018-01-16 19:00   6.6   8.0   146  17.8  16.2  93.3    0.00     0
2018-01-16 18:00   5.4   7.6   154  16.9  14.1  88.8    0.00     0